Terminal Aerodrome Forecast
Issued by NWS

Home | Current Version | Previous Version | Text Only | Print | Product List | Glossary On
Versions: 1 2 3 4 5 6 7 8 9 10 11 12 13
000
FTUS42 KTBW 251700 RRA
TAFPGD
TAF
KPGD 251741Z 2518/2618 23005KT P6SM VCTS SCT035CB SCT250
     FM260000 27005KT P6SM FEW035 SCT200
     FM260200 02004KT P6SM FEW035 SCT250
     FM261500 VRB04KT P6SM VCTS SCT035CB SCT250=

USA.gov is the U.S. government's official web portal to all federal, state and local government web resources and services.